createdAt,value
2019-03-09T00:00:23.107Z,5.65
2019-03-09T00:01:23.070Z,5.67
2019-03-09T00:02:23.071Z,5.67
2019-03-09T00:03:23.058Z,5.68
2019-03-09T00:04:23.101Z,5.7
2019-03-09T00:05:23.090Z,5.66
2019-03-09T00:06:23.086Z,5.65
2019-03-09T00:07:23.111Z,5.64
2019-03-09T00:08:24.612Z,5.64
2019-03-09T00:09:23.069Z,5.63
2019-03-09T00:10:23.062Z,5.63
2019-03-09T00:11:23.046Z,5.63
2019-03-09T00:12:23.043Z,5.63
2019-03-09T00:13:23.062Z,5.65
2019-03-09T00:14:23.057Z,5.65
2019-03-09T00:15:23.041Z,5.65
2019-03-09T00:16:23.113Z,5.66
2019-03-09T00:17:23.051Z,5.68
2019-03-09T00:18:23.177Z,5.67
2019-03-09T00:19:23.090Z,5.68
2019-03-09T00:20:23.072Z,5.7
2019-03-09T00:21:23.053Z,5.7
2019-03-09T00:22:23.044Z,5.7
2019-03-09T00:23:23.046Z,5.69
2019-03-09T00:24:23.057Z,5.69
2019-03-09T00:25:24.419Z,5.68
2019-03-09T00:26:23.060Z,5.68
2019-03-09T00:27:30.503Z,5.7
2019-03-09T00:28:23.059Z,5.68
2019-03-09T00:29:23.278Z,5.68
2019-03-09T00:30:23.223Z,5.66
2019-03-09T00:31:23.056Z,5.68
2019-03-09T00:32:23.033Z,5.67
2019-03-09T00:33:23.040Z,5.67
2019-03-09T00:34:23.059Z,5.69
2019-03-09T00:35:23.068Z,5.68
2019-03-09T00:36:23.179Z,5.68
2019-03-09T00:37:23.038Z,5.68
2019-03-09T00:38:23.070Z,5.69
2019-03-09T00:39:23.017Z,5.68
2019-03-09T00:40:23.057Z,5.69
2019-03-09T00:41:23.089Z,5.69
2019-03-09T00:42:24.535Z,5.68
2019-03-09T00:43:23.019Z,5.71
2019-03-09T00:44:23.019Z,5.71
2019-03-09T00:45:23.024Z,5.7
2019-03-09T00:46:23.027Z,5.7
2019-03-09T00:47:23.068Z,5.71
2019-03-09T00:48:23.041Z,5.71
2019-03-09T00:49:23.057Z,5.69
2019-03-09T00:50:23.480Z,5.7
2019-03-09T00:51:23.058Z,5.69
2019-03-09T00:52:23.086Z,5.71
2019-03-09T00:53:23.030Z,5.72
2019-03-09T00:54:23.006Z,5.71
2019-03-09T00:55:22.999Z,5.7
2019-03-09T00:56:22.991Z,5.7
2019-03-09T00:57:23.021Z,5.7
2019-03-09T00:58:22.993Z,5.72
2019-03-09T00:59:23.049Z,5.71
2019-03-09T01:00:23.011Z,5.71
2019-03-09T01:01:23.013Z,5.71
2019-03-09T01:02:23.233Z,5.71
2019-03-09T01:03:22.969Z,5.73
2019-03-09T01:04:22.994Z,5.74
2019-03-09T01:05:23.003Z,5.74
2019-03-09T01:06:23.000Z,5.73
2019-03-09T01:07:23.102Z,5.75
2019-03-09T01:08:22.985Z,5.71
2019-03-09T01:09:23.055Z,5.71
2019-03-09T01:10:22.978Z,5.68
2019-03-09T01:11:22.986Z,5.7
2019-03-09T01:12:23.010Z,5.68
2019-03-09T01:13:23.345Z,5.71
2019-03-09T01:14:22.973Z,5.71
2019-03-09T01:15:22.971Z,5.71
2019-03-09T01:16:22.974Z,5.72
2019-03-09T01:17:22.953Z,5.74
2019-03-09T01:18:22.978Z,5.75
2019-03-09T01:19:22.983Z,5.74
2019-03-09T01:20:22.965Z,5.75
2019-03-09T01:21:22.977Z,5.72
2019-03-09T01:22:22.971Z,5.75
2019-03-09T01:23:22.955Z,5.75
2019-03-09T01:24:22.941Z,5.77
2019-03-09T01:25:22.929Z,5.78
2019-03-09T01:26:22.927Z,5.76
2019-03-09T01:27:22.945Z,5.76
2019-03-09T01:28:22.952Z,5.76
2019-03-09T01:29:22.978Z,5.77
2019-03-09T01:30:22.932Z,5.76
2019-03-09T01:31:22.945Z,5.78
2019-03-09T01:32:22.922Z,5.76
2019-03-09T01:33:22.946Z,5.76
2019-03-09T01:34:23.003Z,5.76
2019-03-09T01:35:22.945Z,5.75
2019-03-09T01:36:22.931Z,5.76
2019-03-09T01:37:22.951Z,5.75
2019-03-09T01:38:22.932Z,5.78
2019-03-09T01:39:22.940Z,5.74
2019-03-09T01:40:22.891Z,5.77
2019-03-09T01:41:22.925Z,5.77
2019-03-09T01:42:22.904Z,5.77
2019-03-09T01:43:22.913Z,5.75
2019-03-09T01:44:22.909Z,5.76
2019-03-09T01:45:22.926Z,5.77
2019-03-09T01:46:22.935Z,5.77
2019-03-09T01:47:22.927Z,5.76
2019-03-09T01:48:22.889Z,5.78
2019-03-09T01:49:22.928Z,5.74
2019-03-09T01:50:22.890Z,5.76
2019-03-09T01:51:22.955Z,5.76
2019-03-09T01:52:22.890Z,5.77
2019-03-09T01:53:22.910Z,5.77
2019-03-09T01:54:22.892Z,5.78
2019-03-09T01:55:23.225Z,5.79
2019-03-09T01:56:23.119Z,5.78
2019-03-09T01:57:22.893Z,5.78
2019-03-09T01:58:22.935Z,5.79
2019-03-09T01:59:22.977Z,5.8
2019-03-09T02:00:22.909Z,5.81
2019-03-09T02:01:22.903Z,5.82
2019-03-09T02:02:22.951Z,5.84
2019-03-09T02:03:22.946Z,5.86
2019-03-09T02:04:22.896Z,5.86
2019-03-09T02:05:22.942Z,5.84
2019-03-09T02:06:22.959Z,5.83
2019-03-09T02:07:22.894Z,5.85
2019-03-09T02:08:22.859Z,5.84
2019-03-09T02:09:22.894Z,5.86
2019-03-09T02:10:22.893Z,5.87
2019-03-09T02:11:22.873Z,5.88
2019-03-09T02:12:22.919Z,5.87
2019-03-09T02:13:22.907Z,5.88
2019-03-09T02:14:22.913Z,5.86
2019-03-09T02:15:22.862Z,5.88
2019-03-09T02:16:22.853Z,5.88
2019-03-09T02:17:22.892Z,5.88
2019-03-09T02:18:22.855Z,5.89
2019-03-09T02:19:22.870Z,5.89
2019-03-09T02:20:22.876Z,5.9
2019-03-09T02:21:22.865Z,5.91
2019-03-09T02:22:22.859Z,5.91
2019-03-09T02:23:22.907Z,5.92
2019-03-09T02:24:22.865Z,5.93
2019-03-09T02:25:22.867Z,5.92
2019-03-09T02:26:22.889Z,5.91
2019-03-09T02:27:22.888Z,5.92
2019-03-09T02:28:22.872Z,5.93
2019-03-09T02:29:22.873Z,5.93
2019-03-09T02:30:22.886Z,5.94
2019-03-09T02:31:22.839Z,5.94
2019-03-09T02:32:22.882Z,5.94
2019-03-09T02:33:22.899Z,5.95
2019-03-09T02:34:22.945Z,5.95
2019-03-09T02:35:22.877Z,5.95
2019-03-09T02:36:22.949Z,5.96
2019-03-09T02:37:22.879Z,5.98
2019-03-09T02:38:23.306Z,5.98
2019-03-09T02:39:22.976Z,5.98
2019-03-09T02:40:23.701Z,6
2019-03-09T02:41:22.881Z,6
2019-03-09T02:42:22.844Z,6.01
2019-03-09T02:43:22.817Z,6.02
2019-03-09T02:44:22.854Z,6.02
2019-03-09T02:45:22.915Z,6.01
2019-03-09T02:46:22.862Z,6.04
2019-03-09T02:47:22.933Z,6.05
2019-03-09T02:48:22.878Z,6.04
2019-03-09T02:49:22.914Z,6.04
2019-03-09T02:50:22.862Z,6.05
2019-03-09T02:51:22.852Z,6.06
2019-03-09T02:52:22.846Z,6.06
2019-03-09T02:53:22.837Z,6.05
2019-03-09T02:54:22.861Z,6.05
2019-03-09T02:55:22.869Z,6.05
2019-03-09T02:56:22.852Z,6.05
2019-03-09T02:57:22.866Z,6.07
2019-03-09T02:58:22.838Z,6.06
2019-03-09T02:59:22.850Z,6.08
2019-03-09T03:00:22.992Z,6.1
2019-03-09T03:01:23.123Z,6.08
2019-03-09T03:02:22.901Z,6.11
2019-03-09T03:03:22.858Z,6.13
2019-03-09T03:04:22.884Z,6.12
2019-03-09T03:05:22.874Z,6.14
2019-03-09T03:06:22.865Z,6.16
2019-03-09T03:07:22.838Z,6.16
2019-03-09T03:08:22.809Z,6.17
2019-03-09T03:09:22.815Z,6.17
2019-03-09T03:10:22.836Z,6.17
2019-03-09T03:11:22.851Z,6.17
2019-03-09T03:12:22.825Z,6.18
2019-03-09T03:13:22.771Z,6.21
2019-03-09T03:14:22.859Z,6.21
2019-03-09T03:15:22.802Z,6.19
2019-03-09T03:16:22.808Z,6.2
2019-03-09T03:17:22.808Z,6.2
2019-03-09T03:18:22.840Z,6.2
2019-03-09T03:19:22.810Z,6.18
2019-03-09T03:20:22.788Z,6.21
2019-03-09T03:21:22.895Z,6.21
2019-03-09T03:22:22.794Z,6.21
2019-03-09T03:23:22.782Z,6.2
2019-03-09T03:24:22.803Z,6.23
2019-03-09T03:25:22.819Z,6.21
2019-03-09T03:26:22.800Z,6.23
2019-03-09T03:27:22.797Z,6.23
2019-03-09T03:28:22.807Z,6.22
2019-03-09T03:29:22.779Z,6.24
2019-03-09T03:30:22.971Z,6.25
2019-03-09T03:31:22.805Z,6.25
2019-03-09T03:32:22.853Z,6.26
2019-03-09T03:33:23.087Z,6.26
2019-03-09T03:34:22.909Z,6.26
2019-03-09T03:35:22.791Z,6.27
2019-03-09T03:36:22.772Z,6.27
2019-03-09T03:37:22.788Z,6.27
2019-03-09T03:38:22.772Z,6.25
2019-03-09T03:39:22.787Z,6.28
2019-03-09T03:40:22.820Z,6.26
2019-03-09T03:41:22.779Z,6.28
2019-03-09T03:42:22.770Z,6.27
2019-03-09T03:43:22.804Z,6.23
2019-03-09T03:44:22.845Z,6.24
2019-03-09T03:45:22.733Z,6.28
2019-03-09T03:46:22.767Z,6.29
2019-03-09T03:47:22.741Z,6.28
2019-03-09T03:48:22.788Z,6.27
2019-03-09T03:49:22.764Z,6.31
2019-03-09T03:50:22.777Z,6.33
2019-03-09T03:51:22.788Z,6.31
2019-03-09T03:52:22.822Z,6.32
2019-03-09T03:53:22.785Z,6.34
2019-03-09T03:54:22.847Z,6.35
2019-03-09T03:55:22.795Z,6.35
2019-03-09T03:56:22.752Z,6.32
2019-03-09T03:57:22.749Z,6.32
2019-03-09T03:58:22.761Z,6.32
2019-03-09T03:59:22.718Z,6.34
2019-03-09T04:00:23.020Z,6.34
2019-03-09T04:01:22.719Z,6.32
2019-03-09T04:02:22.720Z,6.37
2019-03-09T04:03:22.732Z,6.36
2019-03-09T04:04:22.741Z,6.39
2019-03-09T04:05:22.777Z,6.39
2019-03-09T04:06:22.742Z,6.41
2019-03-09T04:07:22.716Z,6.42
2019-03-09T04:08:22.740Z,6.42
2019-03-09T04:09:22.754Z,6.48
2019-03-09T04:10:22.756Z,6.5
2019-03-09T04:11:22.716Z,6.45
2019-03-09T04:12:22.792Z,6.47
2019-03-09T04:13:22.721Z,6.47
2019-03-09T04:14:22.723Z,6.49
2019-03-09T04:15:22.724Z,6.51
2019-03-09T04:16:22.746Z,6.48
2019-03-09T04:17:22.715Z,6.5
2019-03-09T04:18:22.771Z,6.48
2019-03-09T04:19:22.680Z,6.52
2019-03-09T04:20:22.696Z,6.48
2019-03-09T04:21:22.730Z,6.46
2019-03-09T04:22:22.739Z,6.47
2019-03-09T04:23:24.131Z,6.47
2019-03-09T04:24:22.679Z,6.49
2019-03-09T04:25:22.694Z,6.48
2019-03-09T04:26:22.693Z,6.44
2019-03-09T04:27:22.734Z,6.46
2019-03-09T04:28:22.707Z,6.45
2019-03-09T04:29:22.682Z,6.45
2019-03-09T04:30:22.726Z,6.45
2019-03-09T04:31:22.693Z,6.43
2019-03-09T04:32:22.683Z,6.48
2019-03-09T04:33:22.672Z,6.47
2019-03-09T04:34:22.676Z,6.48
2019-03-09T04:35:22.690Z,6.52
2019-03-09T04:36:22.696Z,6.5
2019-03-09T04:37:22.666Z,6.5
2019-03-09T04:38:22.670Z,6.51
2019-03-09T04:39:22.672Z,6.55
2019-03-09T04:40:22.787Z,6.58
2019-03-09T04:41:23.075Z,6.6
2019-03-09T04:42:22.679Z,6.64
2019-03-09T04:43:22.654Z,6.66
2019-03-09T04:44:22.637Z,6.64
2019-03-09T04:45:22.632Z,6.69
2019-03-09T04:46:22.641Z,6.69
2019-03-09T04:47:22.669Z,6.67
2019-03-09T04:48:22.695Z,6.7
2019-03-09T04:49:22.622Z,6.69
2019-03-09T04:50:22.659Z,6.71
2019-03-09T04:51:22.660Z,6.74
2019-03-09T04:52:22.656Z,6.77
2019-03-09T04:53:22.665Z,6.73
2019-03-09T04:54:22.713Z,6.71
2019-03-09T04:55:22.669Z,6.71
2019-03-09T04:56:22.633Z,6.75
2019-03-09T04:57:22.665Z,6.77
2019-03-09T04:58:22.649Z,6.75
2019-03-09T04:59:22.626Z,6.74
2019-03-09T05:00:22.638Z,6.78
2019-03-09T05:01:22.655Z,6.76
2019-03-09T05:02:22.687Z,6.76
2019-03-09T05:03:22.762Z,6.81
2019-03-09T05:04:22.625Z,6.8
2019-03-09T05:05:22.634Z,6.79
2019-03-09T05:06:22.624Z,6.79
2019-03-09T05:07:22.671Z,6.76
2019-03-09T05:08:22.652Z,6.77
2019-03-09T05:09:22.617Z,6.76
2019-03-09T05:10:22.654Z,6.76
2019-03-09T05:11:22.638Z,6.79
2019-03-09T05:12:22.684Z,6.81
2019-03-09T05:13:22.642Z,6.83
2019-03-09T05:14:22.601Z,6.83
2019-03-09T05:15:22.617Z,6.82
2019-03-09T05:16:22.639Z,6.82
2019-03-09T05:17:22.619Z,6.85
2019-03-09T05:18:22.610Z,6.87
2019-03-09T05:19:22.632Z,6.83
2019-03-09T05:20:22.628Z,6.86
2019-03-09T05:21:22.657Z,6.86
2019-03-09T05:22:22.609Z,6.86
2019-03-09T05:23:22.599Z,6.88
2019-03-09T05:24:22.899Z,6.87
2019-03-09T05:25:22.603Z,6.87
2019-03-09T05:26:22.609Z,6.85
2019-03-09T05:27:22.593Z,6.87
2019-03-09T05:28:22.585Z,6.87
2019-03-09T05:29:22.572Z,6.88
2019-03-09T05:30:22.599Z,6.87
2019-03-09T05:31:22.606Z,6.84
2019-03-09T05:32:22.597Z,6.89
2019-03-09T05:33:22.626Z,6.85
2019-03-09T05:34:22.606Z,6.87
2019-03-09T05:35:22.590Z,6.87
2019-03-09T05:36:22.573Z,6.87
2019-03-09T05:37:22.566Z,6.88
2019-03-09T05:38:22.597Z,6.89
2019-03-09T05:39:22.612Z,6.9
2019-03-09T05:40:22.607Z,6.92
2019-03-09T05:41:22.564Z,6.88
2019-03-09T05:42:22.593Z,6.91
2019-03-09T05:43:22.591Z,6.89
2019-03-09T05:44:22.571Z,6.92
2019-03-09T05:45:22.583Z,6.91
2019-03-09T05:46:22.672Z,6.92
2019-03-09T05:47:22.830Z,6.9
2019-03-09T05:48:22.587Z,6.89
2019-03-09T05:49:22.595Z,6.94
2019-03-09T05:50:22.560Z,6.93
2019-03-09T05:51:22.583Z,6.93
2019-03-09T05:52:22.553Z,6.94
2019-03-09T05:53:22.543Z,6.96
2019-03-09T05:54:22.710Z,6.92
2019-03-09T05:55:22.617Z,6.93
2019-03-09T05:56:22.568Z,6.95
2019-03-09T05:57:22.572Z,6.94
2019-03-09T05:58:22.561Z,6.96
2019-03-09T05:59:22.560Z,6.93
2019-03-09T06:00:22.538Z,6.97
2019-03-09T06:01:22.537Z,6.95
2019-03-09T06:02:22.535Z,6.96
2019-03-09T06:03:22.585Z,6.93
2019-03-09T06:04:22.570Z,6.96
2019-03-09T06:05:22.554Z,6.96
2019-03-09T06:06:22.535Z,6.97
2019-03-09T06:07:22.546Z,6.95
2019-03-09T06:08:22.623Z,6.97
2019-03-09T06:09:22.558Z,6.97
2019-03-09T06:10:22.543Z,6.99
2019-03-09T06:11:22.545Z,7
2019-03-09T06:12:22.529Z,6.98
2019-03-09T06:13:22.509Z,6.97
2019-03-09T06:14:22.535Z,7.02
2019-03-09T06:15:22.516Z,6.99
2019-03-09T06:16:22.536Z,7.01
2019-03-09T06:17:22.562Z,7.02
2019-03-09T06:18:22.518Z,7.02
2019-03-09T06:19:22.508Z,6.99
2019-03-09T06:20:22.503Z,6.99
2019-03-09T06:21:22.587Z,7.06
2019-03-09T06:22:22.514Z,7.03
2019-03-09T06:23:22.514Z,7.06
2019-03-09T06:24:22.504Z,7.02
2019-03-09T06:25:22.533Z,7.06
2019-03-09T06:26:22.496Z,7.08
2019-03-09T06:27:22.518Z,7.09
2019-03-09T06:28:22.518Z,7.06
2019-03-09T06:29:22.500Z,7.03
2019-03-09T06:30:22.629Z,7.09
2019-03-09T06:31:22.508Z,7.08
2019-03-09T06:32:22.496Z,7.11
2019-03-09T06:33:22.495Z,7.12
2019-03-09T06:34:22.526Z,7.11
2019-03-09T06:35:22.506Z,7.12
2019-03-09T06:36:22.675Z,7.11
2019-03-09T06:37:22.524Z,7.09
2019-03-09T06:38:22.481Z,7.13
2019-03-09T06:39:22.488Z,7.15
2019-03-09T06:40:22.481Z,7.16
2019-03-09T06:41:22.477Z,7.16
2019-03-09T06:42:22.485Z,7.17
2019-03-09T06:43:22.492Z,7.18
2019-03-09T06:44:22.520Z,7.15
2019-03-09T06:45:22.488Z,7.14
2019-03-09T06:46:22.493Z,7.17
2019-03-09T06:47:22.589Z,7.2
2019-03-09T06:48:22.493Z,7.19
2019-03-09T06:49:22.469Z,7.18
2019-03-09T06:50:22.469Z,7.19
2019-03-09T06:51:22.524Z,7.19
2019-03-09T06:52:23.408Z,7.18
2019-03-09T06:53:22.489Z,7.2
2019-03-09T06:54:22.506Z,7.2
2019-03-09T06:55:22.500Z,7.18
2019-03-09T06:56:22.460Z,7.22
2019-03-09T06:57:22.517Z,7.23
2019-03-09T06:58:22.460Z,7.24
2019-03-09T06:59:22.486Z,7.23
2019-03-09T07:00:22.474Z,7.22
2019-03-09T07:01:22.498Z,7.21
2019-03-09T07:02:22.461Z,7.22
2019-03-09T07:03:22.490Z,7.23
2019-03-09T07:04:22.456Z,7.25
2019-03-09T07:05:22.490Z,7.23
2019-03-09T07:06:22.446Z,7.24
2019-03-09T07:07:22.450Z,7.25
2019-03-09T07:08:22.464Z,7.22
2019-03-09T07:09:22.481Z,7.17
2019-03-09T07:10:22.457Z,7.23
2019-03-09T07:11:22.458Z,7.25
2019-03-09T07:12:22.478Z,7.25
2019-03-09T07:13:22.457Z,7.25
2019-03-09T07:14:22.881Z,7.26
2019-03-09T07:15:22.480Z,7.25
2019-03-09T07:16:22.432Z,7.27
2019-03-09T07:17:22.439Z,7.24
2019-03-09T07:18:22.470Z,7.23
2019-03-09T07:19:22.485Z,7.24
2019-03-09T07:20:22.673Z,7.23
2019-03-09T07:21:22.431Z,7.25
2019-03-09T07:22:22.438Z,7.25
2019-03-09T07:23:22.432Z,7.24
2019-03-09T07:24:22.491Z,7.21
2019-03-09T07:25:22.452Z,7.23
2019-03-09T07:26:22.442Z,7.25
2019-03-09T07:27:22.406Z,7.23
2019-03-09T07:28:22.444Z,7.22
2019-03-09T07:29:22.424Z,7.22
2019-03-09T07:30:22.491Z,7.24
2019-03-09T07:31:22.456Z,7.24
2019-03-09T07:32:22.457Z,7.27
2019-03-09T07:33:22.422Z,7.28
2019-03-09T07:34:22.474Z,7.23
2019-03-09T07:35:22.430Z,7.27
2019-03-09T07:36:22.389Z,7.26
2019-03-09T07:37:22.396Z,7.21
2019-03-09T07:38:22.417Z,7.24
2019-03-09T07:39:22.434Z,7.24
2019-03-09T07:40:22.464Z,7.27
2019-03-09T07:41:22.413Z,7.28
2019-03-09T07:42:22.414Z,7.3
2019-03-09T07:43:22.424Z,7.29
2019-03-09T07:44:22.413Z,7.3
2019-03-09T07:45:22.423Z,7.27
2019-03-09T07:46:22.391Z,7.26
2019-03-09T07:47:22.406Z,7.27
2019-03-09T07:48:22.392Z,7.27
2019-03-09T07:49:22.420Z,7.27
2019-03-09T07:50:22.398Z,7.24
2019-03-09T07:51:22.404Z,7.3
2019-03-09T07:52:22.394Z,7.27
2019-03-09T07:53:22.422Z,7.28
2019-03-09T07:54:22.394Z,7.27
2019-03-09T07:55:22.407Z,7.29
2019-03-09T07:56:22.392Z,7.31
2019-03-09T07:57:22.390Z,7.31
2019-03-09T07:58:22.408Z,7.3
2019-03-09T07:59:22.384Z,7.28
2019-03-09T08:00:22.461Z,7.29
2019-03-09T08:01:24.265Z,7.3
2019-03-09T08:02:22.376Z,7.29
2019-03-09T08:03:22.387Z,7.29
2019-03-09T08:04:22.387Z,7.3
2019-03-09T08:05:22.388Z,7.28
2019-03-09T08:06:22.384Z,7.29
2019-03-09T08:07:22.368Z,7.3
2019-03-09T08:08:22.396Z,7.3
2019-03-09T08:09:22.372Z,7.31
2019-03-09T08:10:22.410Z,7.31
2019-03-09T08:11:22.396Z,7.31
2019-03-09T08:12:24.484Z,7.32
2019-03-09T08:13:22.394Z,7.31
2019-03-09T08:14:22.412Z,7.34
2019-03-09T08:15:22.410Z,7.3
2019-03-09T08:16:22.351Z,7.33
2019-03-09T08:17:22.372Z,7.31
2019-03-09T08:18:22.489Z,7.34
2019-03-09T08:19:22.609Z,7.3
2019-03-09T08:20:22.423Z,7.27
2019-03-09T08:21:22.410Z,7.26
2019-03-09T08:22:22.357Z,7.31
2019-03-09T08:23:22.390Z,7.32
2019-03-09T08:24:22.375Z,7.34
2019-03-09T08:25:22.395Z,7.32
2019-03-09T08:26:22.345Z,7.31
2019-03-09T08:27:22.418Z,7.33
2019-03-09T08:28:22.407Z,7.35
2019-03-09T08:29:22.351Z,7.36
2019-03-09T08:30:22.456Z,7.34
2019-03-09T08:31:22.403Z,7.32
2019-03-09T08:32:22.439Z,7.37
2019-03-09T08:33:22.447Z,7.37
2019-03-09T08:34:22.377Z,7.38
2019-03-09T08:35:22.364Z,7.38
2019-03-09T08:36:22.354Z,7.36
2019-03-09T08:37:22.413Z,7.36
2019-03-09T08:38:22.414Z,7.4
2019-03-09T08:39:22.352Z,7.41
2019-03-09T08:40:22.473Z,7.41
2019-03-09T08:41:22.511Z,7.4
2019-03-09T08:42:22.353Z,7.38
2019-03-09T08:43:22.386Z,7.36
2019-03-09T08:44:22.386Z,7.34
2019-03-09T08:45:22.343Z,7.33
2019-03-09T08:46:22.453Z,7.38
2019-03-09T08:47:22.368Z,7.4
2019-03-09T08:48:22.436Z,7.4
2019-03-09T08:49:22.393Z,7.36
2019-03-09T08:50:22.718Z,7.34
2019-03-09T08:51:22.383Z,7.35
2019-03-09T08:52:22.377Z,7.33
2019-03-09T08:53:22.405Z,7.34
2019-03-09T08:54:22.400Z,7.37
2019-03-09T08:55:22.450Z,7.38
2019-03-09T08:56:22.384Z,7.36
2019-03-09T08:57:22.383Z,7.38
2019-03-09T08:58:22.404Z,7.37
2019-03-09T08:59:22.452Z,7.38
2019-03-09T09:00:22.419Z,7.38
2019-03-09T09:01:22.334Z,7.38
2019-03-09T09:02:22.971Z,7.33
2019-03-09T09:03:22.306Z,7.32
2019-03-09T09:04:22.295Z,7.37
2019-03-09T09:05:22.304Z,7.36
2019-03-09T09:06:22.288Z,7.38
2019-03-09T09:07:22.316Z,7.37
2019-03-09T09:08:22.330Z,7.32
2019-03-09T09:09:22.345Z,7.33
2019-03-09T09:10:22.339Z,7.35
2019-03-09T09:11:22.315Z,7.36
2019-03-09T09:12:22.277Z,7.36
2019-03-09T09:13:22.294Z,7.39
2019-03-09T09:14:22.283Z,7.34
2019-03-09T09:15:22.279Z,7.37
2019-03-09T09:16:22.287Z,7.37
2019-03-09T09:17:22.301Z,7.38
2019-03-09T09:18:22.278Z,7.37
2019-03-09T09:19:22.263Z,7.38
2019-03-09T09:20:22.269Z,7.38
2019-03-09T09:21:22.261Z,7.35
2019-03-09T09:22:22.286Z,7.36
2019-03-09T09:23:22.849Z,7.36
2019-03-09T09:24:22.268Z,7.34
2019-03-09T09:25:22.335Z,7.36
2019-03-09T09:26:22.278Z,7.35
2019-03-09T09:27:22.231Z,7.35
2019-03-09T09:28:22.263Z,7.35
2019-03-09T09:29:22.290Z,7.34
2019-03-09T09:30:22.289Z,7.35
2019-03-09T09:31:22.278Z,7.37
2019-03-09T09:32:22.283Z,7.35
2019-03-09T09:33:22.279Z,7.36
2019-03-09T09:34:22.300Z,7.36
2019-03-09T09:35:22.246Z,7.37
2019-03-09T09:36:22.267Z,7.37
2019-03-09T09:37:22.277Z,7.38
2019-03-09T09:38:22.309Z,7.37
2019-03-09T09:39:22.255Z,7.36
2019-03-09T09:40:22.298Z,7.38
2019-03-09T09:41:22.328Z,7.4
2019-03-09T09:42:22.275Z,7.41
2019-03-09T09:43:22.293Z,7.38
2019-03-09T09:44:22.246Z,7.42
2019-03-09T09:45:22.381Z,7.39
2019-03-09T09:46:22.259Z,7.38
2019-03-09T09:47:22.266Z,7.37
2019-03-09T09:48:22.226Z,7.41
2019-03-09T09:49:22.253Z,7.41
2019-03-09T09:50:22.283Z,7.41
2019-03-09T09:51:22.244Z,7.39
2019-03-09T09:52:22.234Z,7.39
2019-03-09T09:53:23.862Z,7.41
2019-03-09T09:54:22.218Z,7.41
2019-03-09T09:55:22.225Z,7.42
2019-03-09T09:56:22.227Z,7.42
2019-03-09T09:57:22.253Z,7.43
2019-03-09T09:58:22.266Z,7.42
2019-03-09T09:59:22.256Z,7.42
2019-03-09T10:00:22.337Z,7.41
2019-03-09T10:01:22.266Z,7.42
2019-03-09T10:02:22.223Z,7.4
2019-03-09T10:03:22.253Z,7.43
2019-03-09T10:04:22.208Z,7.4
2019-03-09T10:05:22.237Z,7.4
2019-03-09T10:06:21.983Z,7.39
2019-03-09T10:07:22.306Z,7.39
2019-03-09T10:08:22.248Z,7.39
2019-03-09T10:09:22.229Z,7.42
2019-03-09T10:10:22.236Z,7.39
2019-03-09T10:11:22.201Z,7.38
2019-03-09T10:12:22.191Z,7.41
2019-03-09T10:13:22.194Z,7.4
2019-03-09T10:14:22.188Z,7.38
2019-03-09T10:15:22.189Z,7.41
2019-03-09T10:16:22.243Z,7.45
2019-03-09T10:17:22.221Z,7.44
2019-03-09T10:18:22.178Z,7.43
2019-03-09T10:19:22.241Z,7.41
2019-03-09T10:20:22.188Z,7.41
2019-03-09T10:21:22.183Z,7.42
2019-03-09T10:22:22.184Z,7.45
2019-03-09T10:23:22.200Z,7.43
2019-03-09T10:24:22.174Z,7.44
2019-03-09T10:25:22.208Z,7.42
2019-03-09T10:26:26.954Z,7.41
2019-03-09T10:27:22.176Z,7.42
2019-03-09T10:28:22.190Z,7.41
2019-03-09T10:29:22.388Z,7.43
2019-03-09T10:30:22.190Z,7.43
2019-03-09T10:31:22.145Z,7.43
2019-03-09T10:32:22.173Z,7.41
2019-03-09T10:33:24.524Z,7.43
2019-03-09T10:34:22.210Z,7.46
2019-03-09T10:35:22.200Z,7.46
2019-03-09T10:36:22.235Z,7.46
2019-03-09T10:37:22.180Z,7.44
2019-03-09T10:38:22.180Z,7.43
2019-03-09T10:39:22.177Z,7.43
2019-03-09T10:40:22.184Z,7.41
2019-03-09T10:41:22.171Z,7.43
2019-03-09T10:42:22.170Z,7.45
2019-03-09T10:43:22.157Z,7.49
2019-03-09T10:44:22.157Z,7.49
2019-03-09T10:45:22.219Z,7.5
2019-03-09T10:46:22.158Z,7.47
2019-03-09T10:47:22.180Z,7.49
2019-03-09T10:48:22.147Z,7.47
2019-03-09T10:49:22.163Z,7.47
2019-03-09T10:50:22.240Z,7.48
2019-03-09T10:51:22.273Z,7.48
2019-03-09T10:52:22.139Z,7.5
2019-03-09T10:53:22.206Z,7.54
2019-03-09T10:54:22.153Z,7.6
2019-03-09T10:55:22.160Z,7.57
2019-03-09T10:56:22.140Z,7.51
2019-03-09T10:57:22.136Z,7.54
2019-03-09T10:58:22.155Z,7.54
2019-03-09T10:59:22.133Z,7.55
2019-03-09T11:00:22.129Z,7.57
2019-03-09T11:01:22.149Z,7.6
2019-03-09T11:02:22.122Z,7.63
2019-03-09T11:03:22.159Z,7.71
2019-03-09T11:04:28.188Z,7.7
2019-03-09T11:05:22.118Z,7.68
2019-03-09T11:06:22.123Z,7.71
2019-03-09T11:07:22.117Z,7.68
2019-03-09T11:08:22.137Z,7.69
2019-03-09T11:09:22.170Z,7.67
2019-03-09T11:10:22.175Z,7.68
2019-03-09T11:11:22.140Z,7.67
2019-03-09T11:12:22.165Z,7.7
2019-03-09T11:13:22.125Z,7.72
2019-03-09T11:14:22.153Z,7.71
2019-03-09T11:15:22.120Z,7.76
2019-03-09T11:16:22.189Z,7.78
2019-03-09T11:17:22.111Z,7.76
2019-03-09T11:18:22.104Z,7.76
2019-03-09T11:19:22.124Z,7.76
2019-03-09T11:20:22.120Z,7.8
2019-03-09T11:21:22.110Z,7.81
2019-03-09T11:22:22.109Z,7.83
2019-03-09T11:23:22.108Z,7.82
2019-03-09T11:24:22.102Z,7.84
2019-03-09T11:25:22.130Z,7.85
2019-03-09T11:26:22.110Z,7.86
2019-03-09T11:27:22.259Z,7.83
2019-03-09T11:28:22.101Z,7.85
2019-03-09T11:29:22.119Z,7.87
2019-03-09T11:30:22.121Z,7.88
2019-03-09T11:31:22.099Z,7.91
2019-03-09T11:32:22.095Z,7.87
2019-03-09T11:33:22.126Z,7.87
2019-03-09T11:34:22.578Z,7.84
2019-03-09T11:35:22.146Z,7.83
2019-03-09T11:36:22.165Z,7.83
2019-03-09T11:37:22.123Z,7.81
2019-03-09T11:38:22.111Z,7.82
2019-03-09T11:39:22.164Z,7.84
2019-03-09T11:40:22.113Z,7.85
2019-03-09T11:41:22.102Z,7.84
2019-03-09T11:42:22.089Z,7.86
2019-03-09T11:43:22.201Z,7.85
2019-03-09T11:44:22.067Z,7.85
2019-03-09T11:45:22.085Z,7.87
2019-03-09T11:46:22.085Z,7.87
2019-03-09T11:47:22.087Z,7.84
2019-03-09T11:48:22.089Z,7.86
2019-03-09T11:49:22.107Z,7.82
2019-03-09T11:50:22.155Z,7.87
2019-03-09T11:51:22.089Z,7.83
2019-03-09T11:52:22.075Z,7.84
2019-03-09T11:53:22.042Z,7.85
2019-03-09T11:54:22.813Z,7.81
2019-03-09T11:55:22.084Z,7.8
2019-03-09T11:56:22.050Z,7.77
2019-03-09T11:57:22.067Z,7.81
2019-03-09T11:58:22.063Z,7.8
2019-03-09T11:59:22.144Z,7.81
2019-03-09T12:00:22.059Z,7.78
2019-03-09T12:01:22.066Z,7.8
2019-03-09T12:02:22.110Z,7.8
2019-03-09T12:03:22.049Z,7.83
2019-03-09T12:04:22.060Z,7.83
2019-03-09T12:05:22.154Z,7.78
2019-03-09T12:06:22.053Z,7.77
2019-03-09T12:07:22.056Z,7.79
2019-03-09T12:08:22.034Z,7.79
2019-03-09T12:09:22.040Z,7.77
2019-03-09T12:10:22.179Z,7.75
2019-03-09T12:11:22.196Z,7.74
2019-03-09T12:12:22.068Z,7.69
2019-03-09T12:13:22.048Z,7.7
2019-03-09T12:14:22.133Z,7.7
2019-03-09T12:15:22.036Z,7.7
2019-03-09T12:16:22.121Z,7.72
2019-03-09T12:17:22.053Z,7.7
2019-03-09T12:18:22.017Z,7.71
2019-03-09T12:19:22.035Z,7.7
2019-03-09T12:20:22.059Z,7.69
2019-03-09T12:21:22.047Z,7.71
2019-03-09T12:22:22.043Z,7.71
2019-03-09T12:23:22.148Z,7.72
2019-03-09T12:24:23.115Z,7.71
2019-03-09T12:25:22.091Z,7.72
2019-03-09T12:26:22.058Z,7.7
2019-03-09T12:27:23.018Z,7.72
2019-03-09T12:28:22.050Z,7.74
2019-03-09T12:29:22.006Z,7.72
2019-03-09T12:30:22.064Z,7.72
2019-03-09T12:31:22.028Z,7.73
2019-03-09T12:32:22.008Z,7.72
2019-03-09T12:33:22.022Z,7.72
2019-03-09T12:34:22.013Z,7.73
2019-03-09T12:35:22.028Z,7.71
2019-03-09T12:36:22.030Z,7.72
2019-03-09T12:37:21.988Z,7.74
2019-03-09T12:38:22.028Z,7.72
2019-03-09T12:39:22.877Z,7.71
2019-03-09T12:40:22.205Z,7.71
2019-03-09T12:41:22.036Z,7.69
2019-03-09T12:42:22.126Z,7.67
2019-03-09T12:43:22.036Z,7.7
2019-03-09T12:44:22.080Z,7.68
2019-03-09T12:45:22.014Z,7.71
2019-03-09T12:46:22.009Z,7.71
2019-03-09T12:47:22.030Z,7.69
2019-03-09T12:48:22.105Z,7.71
2019-03-09T12:49:22.000Z,7.72
2019-03-09T12:50:22.130Z,7.72
2019-03-09T12:51:21.990Z,7.72
2019-03-09T12:52:22.003Z,7.75
2019-03-09T12:53:22.039Z,7.76
2019-03-09T12:54:21.982Z,7.78
2019-03-09T12:55:21.970Z,7.78
2019-03-09T12:56:21.985Z,7.81
2019-03-09T12:57:21.989Z,7.8
2019-03-09T12:58:22.013Z,7.79
2019-03-09T12:59:21.996Z,7.8
2019-03-09T13:00:22.071Z,7.8
2019-03-09T13:01:22.389Z,7.81
2019-03-09T13:02:21.967Z,7.8
2019-03-09T13:03:21.969Z,7.82
2019-03-09T13:04:21.980Z,7.8
2019-03-09T13:05:21.995Z,7.8
2019-03-09T13:06:22.007Z,7.79
2019-03-09T13:07:21.988Z,7.77
2019-03-09T13:08:23.849Z,7.79
2019-03-09T13:09:21.977Z,7.79
2019-03-09T13:10:21.955Z,7.83
2019-03-09T13:11:21.990Z,7.8
2019-03-09T13:12:22.005Z,7.81
2019-03-09T13:13:21.954Z,7.8
2019-03-09T13:14:21.944Z,7.79
2019-03-09T13:15:21.985Z,7.81
2019-03-09T13:16:21.973Z,7.83
2019-03-09T13:17:21.951Z,7.8
2019-03-09T13:18:21.967Z,7.82
2019-03-09T13:19:21.970Z,7.81
2019-03-09T13:20:21.946Z,7.77
2019-03-09T13:21:22.044Z,7.75